createdAt,value
2023-01-15T00:00:16.533Z,1.35
2023-01-15T00:02:46.086Z,2.92
2023-01-15T00:05:15.644Z,1.10
2023-01-15T00:07:47.831Z,1.90
2023-01-15T00:10:17.319Z,1.20
2023-01-15T00:12:46.884Z,1.33
2023-01-15T00:15:16.440Z,1.55
2023-01-15T00:17:45.944Z,1.20
2023-01-15T00:20:15.751Z,1.30
2023-01-15T00:22:47.919Z,1.83
2023-01-15T00:25:29.933Z,2.03
2023-01-15T00:28:01.678Z,2.78
2023-01-15T00:30:31.334Z,1.30
2023-01-15T00:33:01.102Z,3.75
2023-01-15T00:35:30.605Z,2.60
2023-01-15T00:38:02.856Z,1.40
2023-01-15T00:40:32.364Z,1.10
2023-01-15T00:43:01.847Z,1.73
2023-01-15T00:45:31.900Z,1.65
2023-01-15T00:48:01.724Z,0.90
2023-01-15T00:50:31.247Z,0.75
2023-01-15T00:53:03.340Z,1.55
2023-01-15T00:55:32.858Z,0.80
2023-01-15T00:58:02.355Z,0.60
2023-01-15T01:00:31.972Z,0.88
2023-01-15T01:03:01.489Z,0.75
2023-01-15T01:05:31.029Z,0.70
2023-01-15T01:08:03.169Z,0.75
2023-01-15T01:10:32.704Z,0.65
2023-01-15T01:13:02.241Z,0.82
2023-01-15T01:15:31.765Z,0.70
2023-01-15T01:18:01.253Z,1.63
2023-01-15T01:20:30.899Z,2.65
2023-01-15T01:23:03.024Z,2.72
2023-01-15T01:25:32.556Z,1.38
2023-01-15T01:28:02.052Z,2.65
2023-01-15T01:30:31.572Z,2.42
2023-01-15T01:33:01.091Z,2.05
2023-01-15T01:35:30.601Z,1.67
2023-01-15T01:38:00.098Z,2.60
2023-01-15T01:40:32.400Z,3.22
2023-01-15T01:43:01.882Z,2.78
2023-01-15T01:45:31.816Z,2.67
2023-01-15T01:48:02.715Z,1.60
2023-01-15T01:50:32.726Z,0.82
2023-01-15T01:53:02.925Z,0.70
2023-01-15T01:55:35.056Z,0.60
2023-01-15T01:58:05.306Z,1.10
2023-01-15T02:00:34.869Z,1.23
2023-01-15T02:03:04.351Z,0.50
2023-01-15T02:05:34.747Z,0.77
2023-01-15T02:08:04.346Z,0.63
2023-01-15T02:10:36.647Z,1.17
2023-01-15T02:13:07.344Z,1.02
2023-01-15T02:15:38.457Z,0.60
2023-01-15T02:20:40.913Z,0.57
2023-01-15T02:23:23.869Z,0.52
2023-01-15T02:26:20.425Z,0.52
2023-01-15T02:28:52.888Z,0.50
2023-01-15T02:31:24.304Z,0.50
2023-01-15T02:33:57.359Z,0.40
2023-01-15T02:36:27.242Z,0.82
2023-01-15T02:38:57.123Z,1.52
2023-01-15T02:41:31.863Z,0.73
2023-01-15T02:44:04.671Z,1.23
2023-01-15T02:46:35.815Z,0.50
2023-01-15T02:51:36.932Z,0.60
2023-01-15T02:54:06.644Z,0.68
2023-01-15T02:56:36.255Z,1.25
2023-01-15T02:59:11.913Z,0.50
2023-01-15T03:01:43.795Z,0.60
2023-01-15T03:04:15.935Z,0.50
2023-01-15T03:06:46.798Z,0.60
2023-01-15T03:09:16.309Z,2.10
2023-01-15T03:11:47.544Z,0.55
2023-01-15T03:14:22.750Z,0.85
2023-01-15T03:16:51.104Z,0.52
2023-01-15T03:19:25.803Z,0.50
2023-01-15T03:21:58.761Z,0.82
2023-01-15T03:24:31.792Z,0.65
2023-01-15T03:27:01.277Z,0.98
2023-01-15T03:29:34.439Z,1.50
2023-01-15T03:32:03.980Z,3.30
2023-01-15T03:34:36.475Z,1.73
2023-01-15T03:37:06.038Z,1.75
2023-01-15T03:39:35.576Z,1.45
2023-01-15T03:42:19.479Z,2.95
2023-01-15T03:44:55.135Z,0.90
2023-01-15T03:47:32.904Z,0.73
2023-01-15T03:50:05.160Z,0.60
2023-01-15T03:52:35.903Z,0.68
2023-01-15T03:55:11.620Z,1.48
2023-01-15T03:57:42.781Z,1.38
2023-01-15T04:02:45.687Z,0.50
2023-01-15T04:05:15.183Z,0.90
2023-01-15T04:07:44.852Z,0.50
2023-01-15T04:10:14.693Z,1.23
2023-01-15T04:12:44.200Z,0.40
2023-01-15T04:15:16.455Z,0.50
2023-01-15T04:17:45.968Z,0.47
2023-01-15T04:20:15.869Z,0.45
2023-01-15T04:22:45.387Z,0.40
2023-01-15T04:25:14.882Z,0.50
2023-01-15T04:27:44.389Z,0.68
2023-01-15T04:30:17.541Z,1.27
2023-01-15T04:32:47.060Z,1.23
2023-01-15T04:35:16.704Z,0.40
2023-01-15T04:37:46.212Z,1.45
2023-01-15T04:40:36.893Z,0.50
2023-01-15T04:43:18.863Z,1.08
2023-01-15T04:45:51.003Z,0.50
2023-01-15T04:48:20.544Z,0.40
2023-01-15T04:50:50.047Z,0.40
2023-01-15T04:53:19.559Z,0.95
2023-01-15T04:55:49.057Z,0.47
2023-01-15T04:58:18.555Z,1.27
2023-01-15T05:00:50.628Z,0.43
2023-01-15T05:03:20.131Z,0.63
2023-01-15T05:05:50.758Z,0.40
2023-01-15T05:08:20.288Z,0.70
2023-01-15T05:10:49.799Z,0.85
2023-01-15T05:13:19.274Z,0.88
2023-01-15T05:15:51.442Z,0.57
2023-01-15T05:18:20.950Z,0.82
2023-01-15T05:20:51.425Z,0.73
2023-01-15T05:23:20.928Z,0.50
2023-01-15T05:25:50.460Z,0.50
2023-01-15T05:28:19.944Z,0.50
2023-01-15T05:30:52.121Z,0.68
2023-01-15T05:33:21.602Z,0.65
2023-01-15T05:35:51.099Z,2.00
2023-01-15T05:38:20.590Z,0.60
2023-01-15T05:40:50.104Z,0.57
2023-01-15T05:43:19.610Z,0.50
2023-01-15T05:45:49.121Z,0.50
2023-01-15T05:48:21.194Z,0.98
2023-01-15T05:50:50.682Z,0.52
2023-01-15T05:53:20.168Z,0.60
2023-01-15T05:55:49.720Z,1.20
2023-01-15T05:58:19.221Z,1.08
2023-01-15T06:00:48.732Z,1.38
2023-01-15T06:03:20.878Z,0.60
2023-01-15T06:05:53.237Z,0.80
2023-01-15T06:08:22.896Z,1.30
2023-01-15T06:10:52.645Z,0.70
2023-01-15T06:13:22.127Z,1.27
2023-01-15T06:15:51.637Z,0.52
2023-01-15T06:18:23.746Z,1.33
2023-01-15T06:20:53.471Z,0.60
2023-01-15T06:23:23.083Z,0.75
2023-01-15T06:25:52.600Z,0.75
2023-01-15T06:28:22.103Z,0.98
2023-01-15T06:30:51.611Z,1.20
2023-01-15T06:33:23.711Z,1.55
2023-01-15T06:35:53.243Z,1.63
2023-01-15T06:38:22.735Z,2.78
2023-01-15T06:40:52.251Z,2.15
2023-01-15T06:43:34.194Z,0.90
2023-01-15T06:46:21.685Z,1.52
2023-01-15T06:48:54.109Z,1.30
2023-01-15T06:51:23.651Z,1.40
2023-01-15T06:53:53.206Z,2.70
2023-01-15T06:56:22.722Z,1.67
2023-01-15T06:58:52.314Z,1.88
2023-01-15T07:01:21.949Z,2.50
2023-01-15T07:03:54.230Z,4.25
2023-01-15T07:06:26.321Z,7.88
2023-01-15T07:08:56.093Z,2.00
2023-01-15T07:11:25.616Z,1.02
2023-01-15T07:14:05.805Z,1.13
2023-01-15T07:16:35.529Z,0.70
2023-01-15T07:19:07.626Z,0.98
2023-01-15T07:21:37.115Z,1.02
2023-01-15T07:24:07.497Z,1.73
2023-01-15T07:26:37.052Z,3.08
2023-01-15T07:29:06.698Z,1.95
2023-01-15T07:31:36.227Z,2.05
2023-01-15T07:34:08.330Z,1.63
2023-01-15T07:36:37.904Z,1.40
2023-01-15T07:39:07.848Z,1.85
2023-01-15T07:41:49.814Z,1.95
2023-01-15T07:44:31.905Z,1.30
2023-01-15T07:47:13.889Z,1.30
2023-01-15T07:49:49.147Z,0.90
2023-01-15T07:52:19.287Z,1.23
2023-01-15T07:54:49.384Z,0.80
2023-01-15T07:57:21.161Z,1.20
2023-01-15T07:59:50.722Z,1.50
2023-01-15T08:02:20.304Z,1.50
2023-01-15T08:04:52.414Z,1.85
2023-01-15T08:07:21.953Z,2.72
2023-01-15T08:09:51.488Z,1.35
2023-01-15T08:12:33.442Z,1.38
2023-01-15T08:15:17.899Z,1.70
2023-01-15T08:17:48.650Z,1.23
2023-01-15T08:20:21.798Z,1.70
2023-01-15T08:22:51.432Z,2.05
2023-01-15T08:25:21.950Z,0.90
2023-01-15T08:27:51.487Z,1.30
2023-01-15T08:30:22.204Z,3.22
2023-01-15T08:32:51.770Z,2.63
2023-01-15T08:35:23.886Z,5.03
2023-01-15T08:37:53.374Z,2.55
2023-01-15T08:40:23.251Z,2.05
2023-01-15T08:42:53.584Z,2.88
2023-01-15T08:45:24.190Z,2.08
2023-01-15T08:47:53.659Z,1.30
2023-01-15T08:50:25.784Z,2.35
2023-01-15T08:52:55.304Z,2.30
2023-01-15T08:55:24.835Z,5.03
2023-01-15T08:57:54.348Z,3.13
2023-01-15T09:00:25.090Z,5.35
2023-01-15T09:02:54.670Z,3.13
2023-01-15T09:05:28.181Z,4.53
2023-01-15T09:07:57.699Z,1.95
2023-01-15T09:10:27.260Z,1.42
2023-01-15T09:12:57.621Z,1.75
2023-01-15T09:15:27.267Z,1.25
2023-01-15T09:17:56.747Z,0.82
2023-01-15T09:20:28.888Z,2.38
2023-01-15T09:22:58.374Z,2.60
2023-01-15T09:25:27.908Z,1.75
2023-01-15T09:27:58.402Z,1.65
2023-01-15T09:30:28.067Z,2.40
2023-01-15T09:32:57.572Z,1.25
2023-01-15T09:35:29.737Z,1.20
2023-01-15T09:37:59.246Z,1.75
2023-01-15T09:40:37.727Z,2.50
2023-01-15T09:43:09.104Z,3.28
2023-01-15T09:45:41.011Z,3.10
2023-01-15T09:48:20.136Z,1.45
2023-01-15T09:51:02.619Z,3.55
2023-01-15T09:53:57.037Z,1.90
2023-01-15T09:56:28.213Z,4.32
2023-01-15T09:58:58.165Z,3.88
2023-01-15T10:01:29.106Z,1.52
2023-01-15T10:04:02.759Z,3.25
2023-01-15T10:06:36.571Z,1.83
2023-01-15T10:09:09.055Z,2.60
2023-01-15T10:11:53.633Z,1.25
2023-01-15T10:14:39.765Z,2.80
2023-01-15T10:17:21.258Z,1.75
2023-01-15T10:19:50.744Z,3.08
2023-01-15T10:22:30.648Z,2.15
2023-01-15T10:25:00.818Z,3.30
2023-01-15T10:27:33.328Z,3.60
2023-01-15T10:30:04.822Z,2.28
2023-01-15T10:32:38.767Z,2.53
2023-01-15T10:35:25.047Z,2.08
2023-01-15T10:37:59.699Z,2.70
2023-01-15T10:40:41.932Z,2.35
2023-01-15T10:43:15.320Z,3.33
2023-01-15T10:45:47.137Z,3.25
2023-01-15T10:48:19.821Z,4.10
2023-01-15T10:50:49.323Z,4.53
2023-01-15T10:53:27.106Z,5.40
2023-01-15T10:55:57.987Z,2.35
2023-01-15T10:58:29.987Z,3.75
2023-01-15T11:01:00.684Z,4.63
2023-01-15T11:03:35.423Z,4.35
2023-01-15T11:06:05.376Z,5.97
2023-01-15T11:09:07.292Z,2.72
2023-01-15T11:11:43.095Z,5.00
2023-01-15T11:14:25.059Z,3.95
2023-01-15T11:17:07.040Z,3.15
2023-01-15T11:19:40.363Z,4.28
2023-01-15T11:22:11.955Z,5.10
2023-01-15T11:24:49.427Z,4.38
2023-01-15T11:27:20.730Z,4.05
2023-01-15T11:29:54.353Z,5.45
2023-01-15T11:32:27.771Z,4.40
2023-01-15T11:34:57.655Z,8.45
2023-01-15T11:37:27.664Z,5.38
2023-01-15T11:40:04.439Z,2.67
2023-01-15T11:42:46.421Z,2.67
2023-01-15T11:45:30.853Z,4.07
2023-01-15T11:48:12.836Z,5.05
2023-01-15T11:50:46.384Z,3.75
2023-01-15T11:53:18.644Z,4.43
2023-01-15T11:56:02.981Z,2.67
2023-01-15T11:58:34.812Z,3.58
2023-01-15T12:01:04.662Z,4.78
2023-01-15T12:03:34.540Z,4.03
2023-01-15T12:06:05.737Z,4.93
2023-01-15T12:11:26.269Z,5.32
2023-01-15T12:14:01.000Z,4.72
2023-01-15T12:16:33.247Z,4.30
2023-01-15T12:19:03.297Z,3.45
2023-01-15T12:21:52.745Z,4.18
2023-01-15T12:24:45.388Z,2.67
2023-01-15T12:27:35.165Z,3.80
2023-01-15T12:30:06.170Z,3.42
2023-01-15T12:32:38.689Z,4.18
2023-01-15T12:35:10.203Z,4.85
2023-01-15T12:37:41.775Z,2.00
2023-01-15T12:40:20.833Z,4.75
2023-01-15T12:43:06.059Z,6.78
2023-01-15T12:45:37.424Z,5.05
2023-01-15T12:48:11.771Z,3.33
2023-01-15T12:50:45.205Z,3.15
2023-01-15T12:53:17.511Z,5.40
2023-01-15T12:55:49.016Z,5.13
2023-01-15T12:58:30.424Z,4.00
2023-01-15T13:01:04.020Z,5.28
2023-01-15T13:03:35.715Z,4.82
2023-01-15T13:06:05.726Z,3.72
2023-01-15T13:08:37.725Z,3.53
2023-01-15T13:11:07.772Z,5.10
2023-01-15T13:13:42.112Z,6.32
2023-01-15T13:16:16.516Z,5.95
2023-01-15T13:18:52.335Z,5.57
2023-01-15T13:21:24.927Z,5.22
2023-01-15T13:24:03.411Z,6.05
2023-01-15T13:26:54.489Z,3.28
2023-01-15T13:29:30.203Z,5.03
2023-01-15T13:32:01.943Z,2.75
2023-01-15T13:34:34.589Z,3.65
2023-01-15T13:37:07.804Z,3.80
2023-01-15T13:39:40.404Z,5.93
2023-01-15T13:42:26.602Z,5.20
2023-01-15T13:45:00.911Z,4.15
2023-01-15T13:47:31.558Z,3.83
2023-01-15T13:50:01.896Z,9.50
2023-01-15T13:52:32.924Z,6.55
2023-01-15T13:57:36.286Z,6.03
2023-01-15T14:00:10.679Z,4.95
2023-01-15T14:02:41.414Z,4.25
2023-01-15T14:05:28.803Z,4.97
2023-01-15T14:07:58.310Z,7.50
2023-01-15T14:10:35.419Z,4.15
2023-01-15T14:13:24.983Z,6.03
2023-01-15T14:16:01.989Z,4.68
2023-01-15T14:18:38.623Z,4.93
2023-01-15T14:21:16.941Z,4.95
2023-01-15T14:23:56.707Z,5.43
2023-01-15T14:26:31.237Z,2.70
2023-01-15T14:29:05.409Z,3.65
2023-01-15T14:31:50.746Z,4.22
2023-01-15T14:34:21.254Z,2.22
2023-01-15T14:36:57.458Z,3.65
2023-01-15T14:39:36.281Z,4.05
2023-01-15T14:42:21.447Z,5.05
2023-01-15T14:44:50.947Z,3.15
2023-01-15T14:47:28.975Z,4.25
2023-01-15T14:50:07.463Z,6.65
2023-01-15T14:52:37.031Z,5.18
2023-01-15T14:55:06.996Z,5.53
2023-01-15T14:57:36.535Z,4.82
2023-01-15T15:00:06.763Z,4.32
2023-01-15T15:02:40.357Z,4.87
2023-01-15T15:05:13.814Z,4.78
2023-01-15T15:07:47.969Z,5.25
2023-01-15T15:10:23.048Z,4.95
2023-01-15T15:12:54.924Z,5.25
2023-01-15T15:15:25.975Z,3.53
2023-01-15T15:20:34.319Z,5.40
2023-01-15T15:23:07.398Z,5.70
2023-01-15T15:25:39.527Z,6.32
2023-01-15T15:28:11.799Z,4.43
2023-01-15T15:30:44.895Z,7.10
2023-01-15T15:33:20.035Z,6.03
2023-01-15T15:35:50.839Z,5.47
2023-01-15T15:38:21.189Z,6.47
2023-01-15T15:40:52.913Z,5.45
2023-01-15T15:43:36.112Z,4.82
2023-01-15T15:46:18.169Z,6.88
2023-01-15T15:48:53.818Z,5.20
2023-01-15T15:51:28.510Z,4.78
2023-01-15T15:54:08.556Z,7.38
2023-01-15T15:56:38.077Z,4.13
2023-01-15T15:59:07.911Z,3.22
2023-01-15T16:01:40.516Z,4.55
2023-01-15T16:04:18.694Z,4.57
2023-01-15T16:06:48.483Z,2.20
2023-01-15T16:09:22.591Z,4.43
2023-01-15T16:11:52.975Z,4.15
2023-01-15T16:14:22.598Z,3.78
2023-01-15T16:16:52.197Z,3.95
2023-01-15T16:19:25.596Z,4.88
2023-01-15T16:21:55.135Z,4.35
2023-01-15T16:24:26.436Z,5.18
2023-01-15T16:26:59.118Z,6.40
2023-01-15T16:29:29.683Z,6.00
2023-01-15T16:31:59.986Z,5.60
2023-01-15T16:34:33.304Z,5.72
2023-01-15T16:37:04.341Z,6.57
2023-01-15T16:39:40.952Z,8.18
2023-01-15T16:42:26.849Z,5.82
2023-01-15T16:44:57.485Z,4.10
2023-01-15T16:47:27.694Z,8.50
2023-01-15T16:50:26.207Z,9.13
2023-01-15T16:53:00.477Z,6.13
2023-01-15T16:55:40.836Z,13.13
2023-01-15T16:58:24.089Z,3.72
2023-01-15T17:00:56.601Z,5.88
2023-01-15T17:03:28.089Z,5.40
2023-01-15T17:05:59.913Z,5.22
2023-01-15T17:08:34.992Z,5.85
2023-01-15T17:11:05.171Z,5.72
2023-01-15T17:13:37.239Z,4.13
2023-01-15T17:16:09.057Z,3.92
2023-01-15T17:18:38.626Z,4.18
2023-01-15T17:21:08.358Z,4.00
2023-01-15T17:23:43.104Z,4.30
2023-01-15T17:26:17.089Z,3.15
2023-01-15T17:28:46.664Z,4.40
2023-01-15T17:31:28.462Z,4.68
2023-01-15T17:33:58.185Z,21.75
2023-01-15T17:36:27.870Z,5.28
2023-01-15T17:39:00.007Z,5.90
2023-01-15T17:41:29.713Z,8.95
2023-01-15T17:43:59.232Z,6.93
2023-01-15T17:46:28.887Z,9.77
2023-01-15T17:48:58.514Z,11.73
2023-01-15T17:51:30.411Z,8.50
2023-01-15T17:54:02.652Z,4.95
2023-01-15T17:56:44.754Z,5.20
2023-01-15T17:59:35.611Z,4.28
2023-01-15T18:02:26.395Z,8.98
2023-01-15T18:05:08.909Z,8.98
2023-01-15T18:07:41.045Z,10.18
2023-01-15T18:10:17.408Z,5.75
2023-01-15T18:12:47.031Z,4.10
2023-01-15T18:15:16.971Z,8.27
2023-01-15T18:17:46.593Z,8.50
2023-01-15T18:20:16.339Z,5.15
2023-01-15T18:22:45.939Z,7.25
2023-01-15T18:25:18.124Z,3.88
2023-01-15T18:27:48.013Z,4.30
2023-01-15T18:30:18.361Z,8.57
2023-01-15T18:32:48.158Z,8.10
2023-01-15T18:35:18.455Z,4.15
2023-01-15T18:37:47.964Z,5.57
2023-01-15T18:40:20.656Z,4.72
2023-01-15T18:43:03.263Z,8.27
2023-01-15T18:45:54.192Z,4.70
2023-01-15T18:48:23.731Z,6.80
2023-01-15T18:50:55.810Z,6.03
2023-01-15T18:53:25.363Z,6.47
2023-01-15T18:55:57.473Z,6.07
2023-01-15T18:58:26.988Z,6.82
2023-01-15T19:00:56.580Z,5.18
2023-01-15T19:03:26.271Z,6.10
2023-01-15T19:05:55.806Z,5.78
2023-01-15T19:08:25.312Z,6.60
2023-01-15T19:10:57.391Z,7.57
2023-01-15T19:13:26.973Z,7.25
2023-01-15T19:16:09.074Z,9.20
2023-01-15T19:18:52.672Z,13.23
2023-01-15T19:21:22.795Z,8.70
2023-01-15T19:23:52.311Z,22.87
2023-01-15T19:26:24.489Z,23.85
2023-01-15T19:28:54.074Z,16.65
2023-01-15T19:31:39.454Z,11.65
2023-01-15T19:34:32.749Z,9.23
2023-01-15T19:37:01.400Z,9.77
2023-01-15T19:39:31.215Z,12.77
2023-01-15T19:42:15.885Z,6.80
2023-01-15T19:44:57.954Z,4.93
2023-01-15T19:47:41.617Z,4.13
2023-01-15T19:50:22.851Z,5.13
2023-01-15T19:52:54.355Z,7.72
2023-01-15T19:55:26.916Z,5.18
2023-01-15T19:58:02.913Z,7.10
2023-01-15T20:00:33.796Z,5.53
2023-01-15T20:03:04.719Z,4.70
2023-01-15T20:05:34.631Z,3.70
2023-01-15T20:08:04.245Z,3.67
2023-01-15T20:10:36.895Z,4.93
2023-01-15T20:13:21.459Z,5.28
2023-01-15T20:15:51.000Z,6.70
2023-01-15T20:18:22.854Z,4.32
2023-01-15T20:20:52.415Z,5.95
2023-01-15T20:23:21.933Z,3.47
2023-01-15T20:25:52.969Z,3.78
2023-01-15T20:30:56.209Z,3.83
2023-01-15T20:33:25.775Z,4.97
2023-01-15T20:35:55.451Z,6.43
2023-01-15T20:38:27.801Z,4.47
2023-01-15T20:41:17.291Z,3.20
2023-01-15T20:44:01.871Z,5.93
2023-01-15T20:46:31.436Z,4.75
2023-01-15T20:49:13.439Z,4.28
2023-01-15T20:51:43.175Z,5.80
2023-01-15T20:54:12.706Z,5.82
2023-01-15T20:56:42.411Z,3.88
2023-01-15T20:59:14.639Z,2.72
2023-01-15T21:01:45.414Z,4.20
2023-01-15T21:04:15.062Z,5.43
2023-01-15T21:06:44.573Z,4.25
2023-01-15T21:09:14.198Z,3.95
2023-01-15T21:11:43.735Z,3.90
2023-01-15T21:14:15.865Z,3.35
2023-01-15T21:16:45.448Z,3.65
2023-01-15T21:19:15.095Z,2.78
2023-01-15T21:21:44.654Z,3.70
2023-01-15T21:24:14.619Z,3.95
2023-01-15T21:26:47.368Z,3.65
2023-01-15T21:29:19.658Z,5.60
2023-01-15T21:31:49.316Z,6.00
2023-01-15T21:34:19.024Z,4.70
2023-01-15T21:36:48.590Z,6.13
2023-01-15T21:39:18.832Z,3.83
2023-01-15T21:42:00.878Z,4.45
2023-01-15T21:44:37.911Z,4.30
2023-01-15T21:47:08.540Z,8.55
2023-01-15T21:49:38.246Z,8.02
2023-01-15T21:52:09.266Z,7.75
2023-01-15T21:54:41.715Z,10.45
2023-01-15T21:57:11.856Z,8.77
2023-01-15T21:59:44.020Z,5.67
2023-01-15T22:02:21.889Z,4.95
2023-01-15T22:04:51.544Z,6.15
2023-01-15T22:07:21.117Z,5.53
2023-01-15T22:09:50.651Z,7.72
2023-01-15T22:12:20.247Z,6.15
2023-01-15T22:14:53.795Z,5.88
2023-01-15T22:17:23.362Z,5.45
2023-01-15T22:19:53.438Z,3.47
2023-01-15T22:22:23.090Z,3.85
2023-01-15T22:24:52.669Z,5.03
2023-01-15T22:27:22.239Z,5.10
2023-01-15T22:29:54.481Z,4.72
2023-01-15T22:32:24.014Z,7.20
2023-01-15T22:34:53.599Z,5.68
2023-01-15T22:37:23.160Z,4.80
2023-01-15T22:39:52.729Z,6.55
2023-01-15T22:42:28.199Z,7.00
2023-01-15T22:45:00.949Z,6.20
2023-01-15T22:47:30.809Z,3.53
2023-01-15T22:50:00.459Z,4.95
2023-01-15T22:52:29.976Z,5.25
2023-01-15T22:54:59.477Z,4.15
2023-01-15T22:57:31.091Z,7.78
2023-01-15T23:00:03.243Z,33.25
2023-01-15T23:02:45.209Z,6.25
2023-01-15T23:05:14.809Z,7.60
2023-01-15T23:07:44.375Z,10.15
2023-01-15T23:10:14.630Z,48.72
2023-01-15T23:12:44.288Z,21.52
2023-01-15T23:15:16.652Z,12.80
2023-01-15T23:17:46.650Z,7.70
2023-01-15T23:20:16.535Z,5.68
2023-01-15T23:22:46.041Z,5.28
2023-01-15T23:25:15.571Z,6.65
2023-01-15T23:27:45.103Z,3.70
2023-01-15T23:30:17.923Z,5.65
2023-01-15T23:32:47.469Z,6.55
2023-01-15T23:35:17.058Z,4.68
2023-01-15T23:37:46.597Z,5.93
2023-01-15T23:40:16.260Z,4.93
2023-01-15T23:42:58.270Z,4.32
2023-01-15T23:45:42.849Z,3.28
2023-01-15T23:48:12.413Z,3.03
2023-01-15T23:50:41.896Z,4.30
2023-01-15T23:53:11.455Z,3.90
2023-01-15T23:55:40.968Z,4.13
2023-01-15T23:58:10.601Z,3.97
